sensor_id;sensor_type;location;lat;lon;timestamp;pressure;altitude;pressure_sealevel;temperature;humidity
39613;BME280;25303;48.896;13.342;2023-02-15T00:00:51;94070.59;;;3.07;60.32
39613;BME280;25303;48.896;13.342;2023-02-15T00:03:36;94066.25;;;3.09;60.29
39613;BME280;25303;48.896;13.342;2023-02-15T00:06:19;94064.63;;;3.08;60.58
39613;BME280;25303;48.896;13.342;2023-02-15T00:09:02;94056.91;;;2.93;61.47
39613;BME280;25303;48.896;13.342;2023-02-15T00:11:47;94059.44;;;2.93;60.81
39613;BME280;25303;48.896;13.342;2023-02-15T00:14:32;94060.63;;;3.03;60.48
39613;BME280;25303;48.896;13.342;2023-02-15T00:17:15;94058.81;;;3.06;60.37
39613;BME280;25303;48.896;13.342;2023-02-15T00:19:57;94057.31;;;3.01;60.51
39613;BME280;25303;48.896;13.342;2023-02-15T00:22:40;94053.28;;;2.97;60.51
39613;BME280;25303;48.896;13.342;2023-02-15T00:25:23;94057.47;;;2.98;60.42
39613;BME280;25303;48.896;13.342;2023-02-15T00:28:07;94048.94;;;2.99;60.20
39613;BME280;25303;48.896;13.342;2023-02-15T00:30:50;94045.56;;;2.99;59.83
39613;BME280;25303;48.896;13.342;2023-02-15T00:33:34;94044.75;;;2.98;59.79
39613;BME280;25303;48.896;13.342;2023-02-15T00:36:16;94046.41;;;2.99;59.81
39613;BME280;25303;48.896;13.342;2023-02-15T00:39:02;94036.97;;;3.01;59.87
39613;BME280;25303;48.896;13.342;2023-02-15T00:41:46;94041.91;;;3.04;59.80
39613;BME280;25303;48.896;13.342;2023-02-15T00:44:30;94046.16;;;3.04;59.16
39613;BME280;25303;48.896;13.342;2023-02-15T00:47:13;94041.91;;;3.04;58.57
39613;BME280;25303;48.896;13.342;2023-02-15T00:49:56;94038.06;;;3.13;59.30
39613;BME280;25303;48.896;13.342;2023-02-15T00:52:39;94036.22;;;3.15;59.04
39613;BME280;25303;48.896;13.342;2023-02-15T00:55:22;94026.38;;;3.09;58.88
39613;BME280;25303;48.896;13.342;2023-02-15T00:58:05;94030.81;;;3.06;58.52
39613;BME280;25303;48.896;13.342;2023-02-15T01:00:49;94024.72;;;2.92;57.94
39613;BME280;25303;48.896;13.342;2023-02-15T01:03:32;94019.47;;;2.95;58.10
39613;BME280;25303;48.896;13.342;2023-02-15T01:06:16;94021.53;;;2.88;57.29
39613;BME280;25303;48.896;13.342;2023-02-15T01:08:59;94018.59;;;2.80;56.47
39613;BME280;25303;48.896;13.342;2023-02-15T01:11:43;94005.94;;;2.79;56.12
39613;BME280;25303;48.896;13.342;2023-02-15T01:14:26;94010.22;;;2.78;56.33
39613;BME280;25303;48.896;13.342;2023-02-15T01:17:10;94010.63;;;2.86;57.17
39613;BME280;25303;48.896;13.342;2023-02-15T01:19:53;94009.72;;;2.87;57.52
39613;BME280;25303;48.896;13.342;2023-02-15T01:22:36;94009.72;;;2.87;57.74
39613;BME280;25303;48.896;13.342;2023-02-15T01:25:21;94005.47;;;2.88;57.95
39613;BME280;25303;48.896;13.342;2023-02-15T01:28:04;94010.31;;;2.93;58.35
39613;BME280;25303;48.896;13.342;2023-02-15T01:30:47;94010.22;;;2.94;58.58
39613;BME280;25303;48.896;13.342;2023-02-15T01:33:32;94001.84;;;2.92;58.92
39613;BME280;25303;48.896;13.342;2023-02-15T01:36:16;93995.84;;;2.93;58.84
39613;BME280;25303;48.896;13.342;2023-02-15T01:39:00;93995.84;;;2.93;58.69
39613;BME280;25303;48.896;13.342;2023-02-15T01:41:45;93993.25;;;2.95;58.63
39613;BME280;25303;48.896;13.342;2023-02-15T01:44:47;93985.44;;;2.98;58.40
39613;BME280;25303;48.896;13.342;2023-02-15T01:47:34;93985.75;;;3.08;58.62
39613;BME280;25303;48.896;13.342;2023-02-15T01:50:23;93986.41;;;3.11;58.50
39613;BME280;25303;48.896;13.342;2023-02-15T01:53:12;93977.03;;;3.12;58.46
39613;BME280;25303;48.896;13.342;2023-02-15T01:55:59;93976.97;;;3.13;58.12
39613;BME280;25303;48.896;13.342;2023-02-15T01:58:44;93970.78;;;3.17;57.84
39613;BME280;25303;48.896;13.342;2023-02-15T02:01:31;93963.91;;;3.19;57.58
39613;BME280;25303;48.896;13.342;2023-02-15T02:04:17;93960.38;;;3.22;57.41
39613;BME280;25303;48.896;13.342;2023-02-15T02:07:06;93955.09;;;3.25;57.03
39613;BME280;25303;48.896;13.342;2023-02-15T02:09:49;93948.13;;;3.29;56.76
39613;BME280;25303;48.896;13.342;2023-02-15T02:12:33;93942.22;;;3.28;56.95
39613;BME280;25303;48.896;13.342;2023-02-15T02:15:21;93939.78;;;3.27;57.17
39613;BME280;25303;48.896;13.342;2023-02-15T02:18:15;93947.47;;;3.25;57.27
39613;BME280;25303;48.896;13.342;2023-02-15T02:21:38;93942.31;;;3.27;57.41
39613;BME280;25303;48.896;13.342;2023-02-15T02:27:41;93940.31;;;3.32;57.51
39613;BME280;25303;48.896;13.342;2023-02-15T02:30:49;93937.75;;;3.32;57.12
39613;BME280;25303;48.896;13.342;2023-02-15T02:33:45;93934.41;;;3.31;57.13
39613;BME280;25303;48.896;13.342;2023-02-15T02:36:34;93927.78;;;3.29;57.14
39613;BME280;25303;48.896;13.342;2023-02-15T02:39:29;93926.94;;;3.28;57.12
39613;BME280;25303;48.896;13.342;2023-02-15T02:42:19;93926.03;;;3.29;56.98
39613;BME280;25303;48.896;13.342;2023-02-15T02:45:05;93917.66;;;3.27;57.04
39613;BME280;25303;48.896;13.342;2023-02-15T02:47:51;93922.28;;;3.21;57.24
39613;BME280;25303;48.896;13.342;2023-02-15T02:50:39;93925.00;;;3.17;57.02
39613;BME280;25303;48.896;13.342;2023-02-15T02:53:23;93923.34;;;3.16;57.27
39613;BME280;25303;48.896;13.342;2023-02-15T02:56:15;93916.09;;;3.10;57.62
39613;BME280;25303;48.896;13.342;2023-02-15T02:59:04;93910.31;;;3.07;57.70
39613;BME280;25303;48.896;13.342;2023-02-15T03:01:52;93913.97;;;3.02;57.88
39613;BME280;25303;48.896;13.342;2023-02-15T03:04:40;93914.94;;;3.00;57.88
39613;BME280;25303;48.896;13.342;2023-02-15T03:07:28;93912.59;;;2.97;57.81
39613;BME280;25303;48.896;13.342;2023-02-15T03:10:14;93916.09;;;2.94;57.88
39613;BME280;25303;48.896;13.342;2023-02-15T03:12:57;93913.91;;;2.88;58.00
39613;BME280;25303;48.896;13.342;2023-02-15T03:15:41;93912.69;;;2.79;57.80
39613;BME280;25303;48.896;13.342;2023-02-15T03:18:48;93916.53;;;2.70;57.74
39613;BME280;25303;48.896;13.342;2023-02-15T03:21:41;93914.97;;;2.68;58.00
39613;BME280;25303;48.896;13.342;2023-02-15T03:24:35;93917.50;;;2.68;58.04
39613;BME280;25303;48.896;13.342;2023-02-15T03:27:23;93906.53;;;2.67;58.30
39613;BME280;25303;48.896;13.342;2023-02-15T03:30:09;93920.06;;;2.68;58.12
39613;BME280;25303;48.896;13.342;2023-02-15T03:32:53;93916.06;;;2.64;58.00
39613;BME280;25303;48.896;13.342;2023-02-15T03:35:42;93920.31;;;2.63;57.97
39613;BME280;25303;48.896;13.342;2023-02-15T03:38:33;93919.56;;;2.61;57.80
39613;BME280;25303;48.896;13.342;2023-02-15T03:41:19;93920.47;;;2.60;57.94
39613;BME280;25303;48.896;13.342;2023-02-15T03:44:06;93911.28;;;2.57;57.88
39613;BME280;25303;48.896;13.342;2023-02-15T03:47:00;93913.41;;;2.49;57.79
39613;BME280;25303;48.896;13.342;2023-02-15T03:49:50;93908.09;;;2.38;57.55
39613;BME280;25303;48.896;13.342;2023-02-15T03:52:35;93902.81;;;2.25;57.95
39613;BME280;25303;48.896;13.342;2023-02-15T03:55:18;93915.13;;;2.17;58.20
39613;BME280;25303;48.896;13.342;2023-02-15T03:58:02;93914.47;;;2.13;58.46
39613;BME280;25303;48.896;13.342;2023-02-15T04:01:05;93906.09;;;2.11;58.69
39613;BME280;25303;48.896;13.342;2023-02-15T04:04:14;93911.19;;;2.11;58.69
39613;BME280;25303;48.896;13.342;2023-02-15T04:06:59;93901.66;;;2.15;58.87
39613;BME280;25303;48.896;13.342;2023-02-15T04:09:41;93904.97;;;2.17;59.08
39613;BME280;25303;48.896;13.342;2023-02-15T04:12:42;93904.06;;;2.18;59.05
39613;BME280;25303;48.896;13.342;2023-02-15T04:15:26;93907.41;;;2.18;58.87
39613;BME280;25303;48.896;13.342;2023-02-15T04:18:26;93911.69;;;2.18;58.88
39613;BME280;25303;48.896;13.342;2023-02-15T04:21:30;93911.75;;;2.16;59.21
39613;BME280;25303;48.896;13.342;2023-02-15T04:24:30;93905.69;;;2.19;59.13
39613;BME280;25303;48.896;13.342;2023-02-15T04:27:30;93911.34;;;2.24;59.30
39613;BME280;25303;48.896;13.342;2023-02-15T04:30:14;93912.03;;;2.27;59.28
39613;BME280;25303;48.896;13.342;2023-02-15T04:32:59;93905.88;;;2.32;59.42
39613;BME280;25303;48.896;13.342;2023-02-15T04:35:43;93912.56;;;2.33;59.27
39613;BME280;25303;48.896;13.342;2023-02-15T04:38:26;93914.31;;;2.32;59.25
39613;BME280;25303;48.896;13.342;2023-02-15T04:41:09;93906.78;;;2.31;59.56
39613;BME280;25303;48.896;13.342;2023-02-15T04:43:53;93908.59;;;2.28;60.02
39613;BME280;25303;48.896;13.342;2023-02-15T04:46:36;93900.22;;;2.26;59.89
39613;BME280;25303;48.896;13.342;2023-02-15T04:49:21;93899.38;;;2.26;59.92
39613;BME280;25303;48.896;13.342;2023-02-15T04:52:04;93906.94;;;2.27;59.88
39613;BME280;25303;48.896;13.342;2023-02-15T04:54:46;93903.41;;;2.30;59.77
39613;BME280;25303;48.896;13.342;2023-02-15T04:57:29;93903.84;;;2.38;59.60
39613;BME280;25303;48.896;13.342;2023-02-15T05:00:12;93905.97;;;2.46;59.51
39613;BME280;25303;48.896;13.342;2023-02-15T05:02:55;93910.72;;;2.52;58.99
39613;BME280;25303;48.896;13.342;2023-02-15T05:05:39;93896.84;;;2.58;58.59
39613;BME280;25303;48.896;13.342;2023-02-15T05:08:23;93895.03;;;2.60;57.73
39613;BME280;25303;48.896;13.342;2023-02-15T05:11:06;93888.91;;;2.64;57.50
39613;BME280;25303;48.896;13.342;2023-02-15T05:13:48;93890.69;;;2.62;57.67
39613;BME280;25303;48.896;13.342;2023-02-15T05:16:31;93894.97;;;2.62;57.82
39613;BME280;25303;48.896;13.342;2023-02-15T05:19:14;93901.44;;;2.67;57.77
39613;BME280;25303;48.896;13.342;2023-02-15T05:21:59;93895.38;;;2.70;57.82
39613;BME280;25303;48.896;13.342;2023-02-15T05:24:41;93892.81;;;2.70;57.83
39613;BME280;25303;48.896;13.342;2023-02-15T05:27:42;93895.38;;;2.70;57.55
39613;BME280;25303;48.896;13.342;2023-02-15T05:30:44;93891.13;;;2.70;57.80
39613;BME280;25303;48.896;13.342;2023-02-15T05:33:28;93901.50;;;2.66;57.68
39613;BME280;25303;48.896;13.342;2023-02-15T05:36:11;93897.53;;;2.62;57.90
39613;BME280;25303;48.896;13.342;2023-02-15T05:38:55;93900.06;;;2.62;58.01
39613;BME280;25303;48.896;13.342;2023-02-15T05:41:38;93898.50;;;2.59;57.79
39613;BME280;25303;48.896;13.342;2023-02-15T05:44:21;93896.03;;;2.57;57.82
39613;BME280;25303;48.896;13.342;2023-02-15T05:47:04;93902.44;;;2.49;57.78
39613;BME280;25303;48.896;13.342;2023-02-15T05:49:48;93904.66;;;2.39;57.98
39613;BME280;25303;48.896;13.342;2023-02-15T05:52:31;93900.81;;;2.32;58.03
39613;BME280;25303;48.896;13.342;2023-02-15T05:55:16;93904.25;;;2.31;58.20
39613;BME280;25303;48.896;13.342;2023-02-15T05:57:58;93906.84;;;2.29;58.16
39613;BME280;25303;48.896;13.342;2023-02-15T06:00:41;93913.41;;;2.33;58.13
39613;BME280;25303;48.896;13.342;2023-02-15T06:03:25;93918.25;;;2.38;58.02
39613;BME280;25303;48.896;13.342;2023-02-15T06:06:09;93911.22;;;2.43;57.49
39613;BME280;25303;48.896;13.342;2023-02-15T06:08:52;93910.97;;;2.48;57.34
39613;BME280;25303;48.896;13.342;2023-02-15T06:11:36;93901.78;;;2.45;57.30
39613;BME280;25303;48.896;13.342;2023-02-15T06:14:19;93910.47;;;2.41;57.31
39613;BME280;25303;48.896;13.342;2023-02-15T06:17:02;93904.06;;;2.34;57.35
39613;BME280;25303;48.896;13.342;2023-02-15T06:19:45;93906.19;;;2.25;57.41
39613;BME280;25303;48.896;13.342;2023-02-15T06:22:28;93916.75;;;2.18;56.89
39613;BME280;25303;48.896;13.342;2023-02-15T06:25:11;93912.88;;;2.10;56.13
39613;BME280;25303;48.896;13.342;2023-02-15T06:27:55;93911.03;;;2.14;56.53
39613;BME280;25303;48.896;13.342;2023-02-15T06:30:38;93916.09;;;2.14;56.75
39613;BME280;25303;48.896;13.342;2023-02-15T06:33:21;93915.22;;;2.15;56.78
39613;BME280;25303;48.896;13.342;2023-02-15T06:36:04;93917.66;;;2.17;56.72
39613;BME280;25303;48.896;13.342;2023-02-15T06:38:47;93921.84;;;2.18;56.89
39613;BME280;25303;48.896;13.342;2023-02-15T06:41:30;93925.13;;;2.20;56.83
39613;BME280;25303;48.896;13.342;2023-02-15T06:44:14;93929.47;;;2.18;57.04
39613;BME280;25303;48.896;13.342;2023-02-15T06:46:57;93925.28;;;2.17;57.02
39613;BME280;25303;48.896;13.342;2023-02-15T06:49:40;93926.28;;;2.14;57.10
39613;BME280;25303;48.896;13.342;2023-02-15T06:52:23;93921.41;;;2.09;57.00
39613;BME280;25303;48.896;13.342;2023-02-15T06:55:06;93923.38;;;2.04;57.34
39613;BME280;25303;48.896;13.342;2023-02-15T06:57:49;93933.75;;;2.00;57.38
39613;BME280;25303;48.896;13.342;2023-02-15T07:00:33;93921.13;;;1.98;57.55
39613;BME280;25303;48.896;13.342;2023-02-15T07:03:16;93932.94;;;1.99;57.84
39613;BME280;25303;48.896;13.342;2023-02-15T07:06:00;93927.06;;;1.99;57.80
39613;BME280;25303;48.896;13.342;2023-02-15T07:08:44;93924.59;;;1.97;57.87
39613;BME280;25303;48.896;13.342;2023-02-15T07:11:27;93926.22;;;1.98;58.02
39613;BME280;25303;48.896;13.342;2023-02-15T07:14:27;93928.09;;;1.94;57.96
39613;BME280;25303;48.896;13.342;2023-02-15T07:17:11;93940.06;;;1.92;58.06
39613;BME280;25303;48.896;13.342;2023-02-15T07:20:16;93941.84;;;1.90;57.99
39613;BME280;25303;48.896;13.342;2023-02-15T07:23:00;93935.13;;;1.89;58.10
39613;BME280;25303;48.896;13.342;2023-02-15T07:25:42;93944.31;;;1.92;58.10
39613;BME280;25303;48.896;13.342;2023-02-15T07:28:25;93934.88;;;1.94;58.32
39613;BME280;25303;48.896;13.342;2023-02-15T07:31:08;93934.81;;;1.95;58.54
39613;BME280;25303;48.896;13.342;2023-02-15T07:33:53;93936.38;;;1.98;58.56
39613;BME280;25303;48.896;13.342;2023-02-15T07:36:35;93935.41;;;2.01;58.50
39613;BME280;25303;48.896;13.342;2023-02-15T07:39:18;93937.88;;;2.02;58.63
39613;BME280;25303;48.896;13.342;2023-02-15T07:42:01;93935.19;;;2.05;58.65
39613;BME280;25303;48.896;13.342;2023-02-15T07:44:45;93941.66;;;2.11;58.67
39613;BME280;25303;48.896;13.342;2023-02-15T07:47:28;93943.88;;;2.17;58.62
39613;BME280;25303;48.896;13.342;2023-02-15T07:50:12;93932.81;;;2.18;57.85
39613;BME280;25303;48.896;13.342;2023-02-15T07:52:55;93923.47;;;2.19;57.88
39613;BME280;25303;48.896;13.342;2023-02-15T07:55:37;93925.03;;;2.21;57.80
39613;BME280;25303;48.896;13.342;2023-02-15T07:58:20;93931.50;;;2.27;57.46
39613;BME280;25303;48.896;13.342;2023-02-15T08:01:25;93931.13;;;2.35;57.30
39613;BME280;25303;48.896;13.342;2023-02-15T08:04:08;93933.25;;;2.42;57.27
39613;BME280;25303;48.896;13.342;2023-02-15T08:06:54;93932.13;;;2.48;57.03
39613;BME280;25303;48.896;13.342;2023-02-15T08:09:37;93928.66;;;2.49;56.89
39613;BME280;25303;48.896;13.342;2023-02-15T08:12:19;93935.47;;;2.49;56.87
39613;BME280;25303;48.896;13.342;2023-02-15T08:15:02;93940.97;;;2.57;56.61
39613;BME280;25303;48.896;13.342;2023-02-15T08:17:46;93942.84;;;2.53;56.25
39613;BME280;25303;48.896;13.342;2023-02-15T08:20:29;93942.94;;;2.52;56.88
39613;BME280;25303;48.896;13.342;2023-02-15T08:23:13;93944.19;;;2.61;56.84
39613;BME280;25303;48.896;13.342;2023-02-15T08:25:59;93943.69;;;2.70;57.26
39613;BME280;25303;48.896;13.342;2023-02-15T08:28:42;93942.19;;;2.66;56.54
39613;BME280;25303;48.896;13.342;2023-02-15T08:31:26;93941.69;;;2.59;56.90
39613;BME280;25303;48.896;13.342;2023-02-15T08:34:10;93934.50;;;2.67;57.22
39613;BME280;25303;48.896;13.342;2023-02-15T08:36:53;93935.00;;;2.74;57.13
39613;BME280;25303;48.896;13.342;2023-02-15T08:39:38;93933.66;;;2.83;57.07
39613;BME280;25303;48.896;13.342;2023-02-15T08:42:20;93940.88;;;2.91;56.90
39613;BME280;25303;48.896;13.342;2023-02-15T08:45:04;93939.81;;;2.95;56.61
39613;BME280;25303;48.896;13.342;2023-02-15T08:47:47;93943.75;;;3.00;56.14
39613;BME280;25303;48.896;13.342;2023-02-15T08:50:29;93947.78;;;3.04;56.06
39613;BME280;25303;48.896;13.342;2023-02-15T08:53:12;93951.22;;;3.03;55.75
39613;BME280;25303;48.896;13.342;2023-02-15T08:55:59;93949.56;;;3.02;55.93
39613;BME280;25303;48.896;13.342;2023-02-15T08:58:41;93949.41;;;3.06;55.92
39613;BME280;25303;48.896;13.342;2023-02-15T09:01:25;93951.53;;;3.13;56.24
39613;BME280;25303;48.896;13.342;2023-02-15T09:04:08;93953.97;;;3.31;56.55
39613;BME280;25303;48.896;13.342;2023-02-15T09:06:51;93950.13;;;3.54;56.65
39613;BME280;25303;48.896;13.342;2023-02-15T09:09:34;93946.31;;;3.61;55.86
39613;BME280;25303;48.896;13.342;2023-02-15T09:12:18;93950.44;;;3.64;55.32
39613;BME280;25303;48.896;13.342;2023-02-15T09:15:01;93954.47;;;3.52;54.90
39613;BME280;25303;48.896;13.342;2023-02-15T09:17:44;93948.06;;;3.61;55.66
39613;BME280;25303;48.896;13.342;2023-02-15T09:20:27;93952.78;;;3.82;55.55
39613;BME280;25303;48.896;13.342;2023-02-15T09:23:10;93939.72;;;4.02;55.50
39613;BME280;25303;48.896;13.342;2023-02-15T09:26:09;93940.91;;;4.25;54.84
39613;BME280;25303;48.896;13.342;2023-02-15T09:28:55;93943.91;;;4.32;54.94
39613;BME280;25303;48.896;13.342;2023-02-15T09:31:40;93947.09;;;4.50;55.42
39613;BME280;25303;48.896;13.342;2023-02-15T09:34:25;93946.72;;;4.71;55.20
39613;BME280;25303;48.896;13.342;2023-02-15T09:37:08;93938.00;;;4.88;54.74
39613;BME280;25303;48.896;13.342;2023-02-15T09:39:51;93942.97;;;5.04;54.75
39613;BME280;25303;48.896;13.342;2023-02-15T09:42:43;93946.22;;;5.21;54.53
39613;BME280;25303;48.896;13.342;2023-02-15T09:45:45;93948.69;;;5.35;54.08
39613;BME280;25303;48.896;13.342;2023-02-15T09:48:38;93943.94;;;5.56;54.16
39613;BME280;25303;48.896;13.342;2023-02-15T09:51:36;93933.75;;;5.69;53.69
39613;BME280;25303;48.896;13.342;2023-02-15T09:54:33;93935.88;;;5.75;52.67
39613;BME280;25303;48.896;13.342;2023-02-15T09:57:26;93935.47;;;5.69;52.51
39613;BME280;25303;48.896;13.342;2023-02-15T10:00:19;93936.81;;;5.74;52.33
39613;BME280;25303;48.896;13.342;2023-02-15T10:03:19;93934.78;;;5.80;52.19
39613;BME280;25303;48.896;13.342;2023-02-15T10:06:17;93938.34;;;5.90;52.41
39613;BME280;25303;48.896;13.342;2023-02-15T10:09:27;93931.56;;;6.03;52.57
39613;BME280;25303;48.896;13.342;2023-02-15T10:12:23;93923.06;;;6.16;52.62
39613;BME280;25303;48.896;13.342;2023-02-15T10:15:24;93933.69;;;6.22;51.91
39613;BME280;25303;48.896;13.342;2023-02-15T10:18:34;93938.81;;;6.22;51.87
39613;BME280;25303;48.896;13.342;2023-02-15T10:21:33;93919.56;;;6.30;52.45
39613;BME280;25303;48.896;13.342;2023-02-15T10:24:40;93917.91;;;6.42;52.48
39613;BME280;25303;48.896;13.342;2023-02-15T10:27:32;93910.31;;;6.53;52.36
39613;BME280;25303;48.896;13.342;2023-02-15T10:30:25;93910.59;;;6.61;51.93
39613;BME280;25303;48.896;13.342;2023-02-15T10:33:21;93909.47;;;6.65;51.95
39613;BME280;25303;48.896;13.342;2023-02-15T10:36:19;93910.66;;;6.73;52.09
39613;BME280;25303;48.896;13.342;2023-02-15T10:39:09;93909.91;;;6.83;52.07
39613;BME280;25303;48.896;13.342;2023-02-15T10:42:05;93898.41;;;6.89;51.86
39613;BME280;25303;48.896;13.342;2023-02-15T10:45:01;93903.25;;;6.94;51.69
39613;BME280;25303;48.896;13.342;2023-02-15T10:47:58;93894.19;;;7.01;52.15
39613;BME280;25303;48.896;13.342;2023-02-15T10:50:47;93899.47;;;7.11;51.85
39613;BME280;25303;48.896;13.342;2023-02-15T10:53:54;93890.66;;;7.15;51.21
39613;BME280;25303;48.896;13.342;2023-02-15T10:56:41;93890.31;;;7.20;51.43
39613;BME280;25303;48.896;13.342;2023-02-15T10:59:49;93896.22;;;7.20;51.15
39613;BME280;25303;48.896;13.342;2023-02-15T11:02:58;93894.50;;;7.21;50.99
39613;BME280;25303;48.896;13.342;2023-02-15T11:05:53;93896.22;;;7.20;50.99
39613;BME280;25303;48.896;13.342;2023-02-15T11:08:43;93899.75;;;7.19;51.05
39613;BME280;25303;48.896;13.342;2023-02-15T11:11:31;93892.38;;;7.14;50.09
39613;BME280;25303;48.896;13.342;2023-02-15T11:14:18;93893.66;;;7.20;50.81
39613;BME280;25303;48.896;13.342;2023-02-15T11:17:09;93898.72;;;7.22;50.59
39613;BME280;25303;48.896;13.342;2023-02-15T11:19:58;93886.41;;;7.27;50.08
39613;BME280;25303;48.896;13.342;2023-02-15T11:22:47;93883.38;;;7.33;50.53
39613;BME280;25303;48.896;13.342;2023-02-15T11:25:33;93892.03;;;7.43;50.07
39613;BME280;25303;48.896;13.342;2023-02-15T11:28:21;93887.16;;;7.52;50.15
39613;BME280;25303;48.896;13.342;2023-02-15T11:31:13;93884.84;;;7.60;50.08
39613;BME280;25303;48.896;13.342;2023-02-15T11:34:01;93886.03;;;7.67;49.85
39613;BME280;25303;48.896;13.342;2023-02-15T11:36:47;93877.91;;;7.73;50.06
39613;BME280;25303;48.896;13.342;2023-02-15T11:39:33;93875.78;;;7.79;49.93
39613;BME280;25303;48.896;13.342;2023-02-15T11:42:20;93866.94;;;7.83;49.82
39613;BME280;25303;48.896;13.342;2023-02-15T11:45:19;93871.97;;;7.84;48.95
39613;BME280;25303;48.896;13.342;2023-02-15T11:48:09;93861.81;;;7.83;49.10
39613;BME280;25303;48.896;13.342;2023-02-15T11:50:52;93863.78;;;7.79;48.62
39613;BME280;25303;48.896;13.342;2023-02-15T11:53:37;93863.78;;;7.79;48.61
39613;BME280;25303;48.896;13.342;2023-02-15T11:56:22;93862.97;;;7.79;48.71
39613;BME280;25303;48.896;13.342;2023-02-15T11:59:10;93864.50;;;7.81;48.01
39613;BME280;25303;48.896;13.342;2023-02-15T12:01:56;93861.59;;;7.86;48.18
39613;BME280;25303;48.896;13.342;2023-02-15T12:04:42;93850.41;;;7.87;47.48
39613;BME280;25303;48.896;13.342;2023-02-15T12:07:29;93849.00;;;7.83;46.29
39613;BME280;25303;48.896;13.342;2023-02-15T12:10:19;93846.66;;;7.68;45.28
39613;BME280;25303;48.896;13.342;2023-02-15T12:13:10;93842.44;;;7.67;46.10
39613;BME280;25303;48.896;13.342;2023-02-15T12:15:55;93852.00;;;7.65;46.39
39613;BME280;25303;48.896;13.342;2023-02-15T12:18:42;93852.69;;;7.56;45.64
39613;BME280;25303;48.896;13.342;2023-02-15T12:21:29;93844.59;;;7.38;44.50
39613;BME280;25303;48.896;13.342;2023-02-15T12:24:18;93836.69;;;7.41;45.08
39613;BME280;25303;48.896;13.342;2023-02-15T12:27:04;93832.47;;;7.28;42.95
39613;BME280;25303;48.896;13.342;2023-02-15T12:29:51;93824.41;;;7.10;41.91
39613;BME280;25303;48.896;13.342;2023-02-15T12:32:36;93823.69;;;7.08;43.57
39613;BME280;25303;48.896;13.342;2023-02-15T12:35:31;93814.16;;;7.10;43.90
39613;BME280;25303;48.896;13.342;2023-02-15T12:38:23;93812.78;;;7.29;45.28
39613;BME280;25303;48.896;13.342;2023-02-15T12:41:22;93804.69;;;7.47;44.97
39613;BME280;25303;48.896;13.342;2023-02-15T12:44:09;93800.75;;;7.54;45.26
39613;BME280;25303;48.896;13.342;2023-02-15T12:47:00;93796.91;;;7.59;45.00
39613;BME280;25303;48.896;13.342;2023-02-15T12:49:44;93792.00;;;7.56;43.66
39613;BME280;25303;48.896;13.342;2023-02-15T12:52:30;93790.50;;;7.65;44.23
39613;BME280;25303;48.896;13.342;2023-02-15T12:55:22;93781.53;;;7.71;42.90
39613;BME280;25303;48.896;13.342;2023-02-15T12:58:08;93780.94;;;7.79;43.71
39613;BME280;25303;48.896;13.342;2023-02-15T13:01:10;93778.75;;;7.85;42.91
39613;BME280;25303;48.896;13.342;2023-02-15T13:03:57;93765.34;;;7.93;42.81
39613;BME280;25303;48.896;13.342;2023-02-15T13:06:47;93764.84;;;7.99;43.06
39613;BME280;25303;48.896;13.342;2023-02-15T13:09:37;93759.97;;;8.08;42.96
39613;BME280;25303;48.896;13.342;2023-02-15T13:12:23;93764.38;;;8.17;43.98
39613;BME280;25303;48.896;13.342;2023-02-15T13:15:24;93761.56;;;8.20;43.92
39613;BME280;25303;48.896;13.342;2023-02-15T13:18:13;93761.09;;;8.26;44.70
39613;BME280;25303;48.896;13.342;2023-02-15T13:21:04;93752.47;;;8.27;45.21
39613;BME280;25303;48.896;13.342;2023-02-15T13:23:49;93753.03;;;8.31;45.52
39613;BME280;25303;48.896;13.342;2023-02-15T13:26:35;93756.03;;;8.36;45.70
39613;BME280;25303;48.896;13.342;2023-02-15T13:29:22;93749.31;;;8.35;45.98
39613;BME280;25303;48.896;13.342;2023-02-15T13:32:12;93743.47;;;8.33;46.31
39613;BME280;25303;48.896;13.342;2023-02-15T13:35:02;93742.78;;;8.31;46.18
39613;BME280;25303;48.896;13.342;2023-02-15T13:41:11;93732.97;;;8.25;46.08
39613;BME280;25303;48.896;13.342;2023-02-15T13:44:04;93731.84;;;8.17;45.93
39613;BME280;25303;48.896;13.342;2023-02-15T13:47:05;93729.75;;;8.11;46.26
39613;BME280;25303;48.896;13.342;2023-02-15T13:50:05;93741.06;;;8.09;46.89
39613;BME280;25303;48.896;13.342;2023-02-15T13:53:00;93749.09;;;8.04;47.11
39613;BME280;25303;48.896;13.342;2023-02-15T13:55:47;93739.25;;;7.88;47.04
39613;BME280;25303;48.896;13.342;2023-02-15T14:01:46;93747.50;;;7.57;47.78
39613;BME280;25303;48.896;13.342;2023-02-15T14:04:41;93751.22;;;7.42;47.94
39613;BME280;25303;48.896;13.342;2023-02-15T14:07:32;93745.84;;;7.22;48.29
39613;BME280;25303;48.896;13.342;2023-02-15T14:10:29;93745.63;;;7.14;48.31
39613;BME280;25303;48.896;13.342;2023-02-15T14:13:39;93735.66;;;6.98;48.71
39613;BME280;25303;48.896;13.342;2023-02-15T14:16:33;93739.47;;;6.81;49.03
39613;BME280;25303;48.896;13.342;2023-02-15T14:19:25;93739.75;;;6.65;49.20
39613;BME280;25303;48.896;13.342;2023-02-15T14:22:19;93737.38;;;6.50;49.45
39613;BME280;25303;48.896;13.342;2023-02-15T14:25:17;93741.91;;;6.47;49.98
39613;BME280;25303;48.896;13.342;2023-02-15T14:28:07;93742.56;;;6.37;50.24
39613;BME280;25303;48.896;13.342;2023-02-15T14:30:52;93739.44;;;6.21;50.12
39613;BME280;25303;48.896;13.342;2023-02-15T14:33:38;93742.06;;;6.08;50.45
39613;BME280;25303;48.896;13.342;2023-02-15T14:36:24;93740.34;;;5.96;50.58
39613;BME280;25303;48.896;13.342;2023-02-15T14:39:18;93745.56;;;5.81;50.39
39613;BME280;25303;48.896;13.342;2023-02-15T14:42:25;93747.53;;;5.65;50.49
39613;BME280;25303;48.896;13.342;2023-02-15T14:45:19;93749.91;;;5.55;50.42
39613;BME280;25303;48.896;13.342;2023-02-15T14:48:09;93740.41;;;5.57;50.65
39613;BME280;25303;48.896;13.342;2023-02-15T14:50:54;93743.88;;;5.56;50.60
39613;BME280;25303;48.896;13.342;2023-02-15T14:53:39;93746.44;;;5.56;50.24
39613;BME280;25303;48.896;13.342;2023-02-15T14:56:25;93745.63;;;5.55;50.47
39613;BME280;25303;48.896;13.342;2023-02-15T14:59:18;93739.09;;;5.51;50.46